Time,TemperatureF,DewpointF,PressureIn,WindDirection,WindDirectionDegrees,WindSpeedMPH,WindSpeedGustMPH,Humidity,HourlyPrecipIn,Conditions,Clouds,dailyrainin,SoftwareType,DateUTC
2013-04-25 00:03:00,54.0,46.0,30.09,North,0,3.0,10.0,74,0.00,,,0.02,,2013-04-25 04:03:00,
2013-04-25 00:13:00,54.0,46.0,30.09,North,0,3.0,10.0,74,0.00,,,0.02,,2013-04-25 04:13:00,
2013-04-25 00:23:00,54.0,46.0,30.09,WNW,302,3.0,8.0,74,0.00,,,0.02,,2013-04-25 04:23:00,
2013-04-25 00:33:00,54.0,46.0,30.09,SSW,193,0.0,4.0,75,0.00,,,0.02,,2013-04-25 04:33:00,
2013-04-25 00:43:00,54.0,46.0,30.09,SSW,193,0.0,4.0,75,0.00,,,0.02,,2013-04-25 04:43:00,
2013-04-25 00:52:00,53.0,46.0,30.09,SW,218,2.0,6.0,76,0.00,,,0.02,,2013-04-25 04:52:00,
2013-04-25 01:03:00,52.0,45.0,30.10,WSW,237,3.0,8.0,76,0.00,,,0.02,,2013-04-25 05:03:00,
2013-04-25 01:12:00,52.0,45.0,30.10,WSW,237,3.0,8.0,76,0.00,,,0.02,,2013-04-25 05:12:00,
2013-04-25 01:22:00,51.0,44.0,30.10,WSW,241,3.0,8.0,76,0.00,,,0.02,,2013-04-25 05:22:00,
2013-04-25 01:32:00,50.0,43.0,30.10,WSW,239,6.0,11.0,76,0.00,,,0.02,,2013-04-25 05:32:00,
2013-04-25 01:42:00,50.0,43.0,30.10,WSW,239,6.0,11.0,76,0.00,,,0.02,,2013-04-25 05:42:00,
2013-04-25 01:51:00,50.0,43.0,30.10,SW,222,5.0,13.0,76,0.00,,,0.02,,2013-04-25 05:51:00,
2013-04-25 02:02:00,49.0,42.0,30.10,SW,225,3.0,11.0,76,0.00,,,0.02,,2013-04-25 06:02:00,
2013-04-25 02:12:00,49.0,42.0,30.10,SW,225,3.0,11.0,76,0.00,,,0.02,,2013-04-25 06:12:00,
2013-04-25 02:22:00,49.0,41.0,30.10,SW,232,3.0,10.0,75,0.00,,,0.02,,2013-04-25 06:22:00,
2013-04-25 02:32:00,48.0,41.0,30.10,SSW,212,2.0,8.0,76,0.00,,,0.02,,2013-04-25 06:32:00,
2013-04-25 02:42:00,48.0,41.0,30.10,SSW,212,2.0,8.0,76,0.00,,,0.02,,2013-04-25 06:42:00,
2013-04-25 02:52:00,48.0,41.0,30.10,SW,215,2.0,7.0,76,0.00,,,0.02,,2013-04-25 06:52:00,
2013-04-25 03:02:00,47.0,40.0,30.09,SW,232,0.0,8.0,76,0.00,,,0.02,,2013-04-25 07:02:00,
2013-04-25 03:12:00,47.0,40.0,30.09,SSW,198,1.0,6.0,77,0.00,,,0.02,,2013-04-25 07:12:00,
2013-04-25 03:22:00,47.0,40.0,30.09,SSW,198,1.0,6.0,77,0.00,,,0.02,,2013-04-25 07:22:00,
2013-04-25 03:32:00,47.0,41.0,30.09,SSW,213,2.0,6.0,78,0.00,,,0.02,,2013-04-25 07:32:00,
2013-04-25 03:42:00,47.0,41.0,30.09,SSW,213,2.0,6.0,78,0.00,,,0.02,,2013-04-25 07:42:00,
2013-04-25 03:52:00,47.0,40.0,30.09,SSW,192,0.0,6.0,77,0.00,,,0.02,,2013-04-25 07:52:00,
2013-04-25 04:02:00,46.0,39.0,30.10,ENE,59,1.0,13.0,75,0.00,,,0.02,,2013-04-25 08:02:00,
2013-04-25 04:11:00,46.0,39.0,30.10,ENE,59,1.0,13.0,75,0.00,,,0.02,,2013-04-25 08:11:00,
2013-04-25 04:21:00,46.0,39.0,30.10,ENE,59,0.0,3.0,75,0.00,,,0.02,,2013-04-25 08:21:00,
2013-04-25 04:32:00,46.0,38.0,30.10,NNW,345,0.0,5.0,73,0.00,,,0.02,,2013-04-25 08:32:00,
2013-04-25 04:42:00,46.0,38.0,30.10,NNW,345,0.0,5.0,73,0.00,,,0.02,,2013-04-25 08:42:00,
2013-04-25 04:51:00,45.0,37.0,30.11,North,0,0.0,2.0,73,0.00,,,0.02,,2013-04-25 08:51:00,
2013-04-25 05:01:00,43.0,36.0,30.11,SE,141,0.0,4.0,77,0.00,,,0.02,,2013-04-25 09:01:00,
2013-04-25 05:11:00,43.0,36.0,30.11,SE,141,0.0,4.0,77,0.00,,,0.02,,2013-04-25 09:11:00,
2013-04-25 05:21:00,42.0,36.0,30.12,SSE,167,1.0,3.0,78,0.00,,,0.02,,2013-04-25 09:21:00,
2013-04-25 05:33:00,41.0,35.0,30.12,SSW,212,1.0,4.0,80,0.00,,,0.02,,2013-04-25 09:33:00,
2013-04-25 05:42:00,41.0,35.0,30.12,SSW,212,1.0,4.0,80,0.00,,,0.02,,2013-04-25 09:42:00,
2013-04-25 05:52:00,41.0,36.0,30.13,SSW,212,0.0,3.0,81,0.00,,,0.02,,2013-04-25 09:52:00,
2013-04-25 06:02:00,40.0,35.0,30.13,SW,214,0.0,3.0,82,0.00,,,0.02,,2013-04-25 10:02:00,
2013-04-25 06:12:00,40.0,35.0,30.13,SW,214,0.0,3.0,82,0.00,,,0.02,,2013-04-25 10:12:00,
2013-04-25 06:22:00,40.0,35.0,30.14,SW,214,0.0,2.0,82,0.00,,,0.02,,2013-04-25 10:22:00,
2013-04-25 06:33:00,39.0,35.0,30.13,SSW,213,0.0,3.0,84,0.00,,,0.02,,2013-04-25 10:33:00,
2013-04-25 06:42:00,39.0,35.0,30.13,SSW,213,0.0,3.0,84,0.00,,,0.02,,2013-04-25 10:42:00,
2013-04-25 06:52:00,39.0,35.0,30.14,WSW,238,0.0,4.0,84,0.00,,,0.02,,2013-04-25 10:52:00,
2013-04-25 07:02:00,38.0,34.0,30.15,South,172,0.0,3.0,84,0.00,,,0.02,,2013-04-25 11:02:00,
2013-04-25 07:12:00,38.0,34.0,30.15,South,172,0.0,3.0,84,0.00,,,0.02,,2013-04-25 11:12:00,
2013-04-25 07:22:00,38.0,34.0,30.16,South,172,0.0,2.0,85,0.00,,,0.02,,2013-04-25 11:22:00,
2013-04-25 07:32:00,38.0,34.0,30.16,South,172,0.0,0.0,85,0.00,,,0.02,,2013-04-25 11:32:00,
2013-04-25 07:42:00,38.0,34.0,30.16,South,172,0.0,0.0,85,0.00,,,0.02,,2013-04-25 11:42:00,
2013-04-25 07:51:00,38.0,34.0,30.17,South,172,0.0,0.0,85,0.00,,,0.02,,2013-04-25 11:51:00,
2013-04-25 08:01:00,38.0,34.0,30.18,South,172,0.0,0.0,85,0.00,,,0.02,,2013-04-25 12:01:00,
2013-04-25 08:12:00,38.0,34.0,30.18,South,172,0.0,0.0,85,0.00,,,0.02,,2013-04-25 12:12:00,
2013-04-25 08:21:00,38.0,34.0,30.18,South,172,0.0,0.0,85,0.00,,,0.02,,2013-04-25 12:21:00,
2013-04-25 08:32:00,37.0,33.0,30.19,South,172,0.0,0.0,86,0.00,,,0.02,,2013-04-25 12:32:00,
2013-04-25 08:42:00,37.0,33.0,30.19,South,172,0.0,0.0,86,0.00,,,0.02,,2013-04-25 12:42:00,
2013-04-25 08:51:00,38.0,34.0,30.19,South,172,0.0,1.0,87,0.00,,,0.02,,2013-04-25 12:51:00,
2013-04-25 09:02:00,38.0,34.0,30.19,South,172,0.0,1.0,87,0.00,,,0.02,,2013-04-25 13:02:00,
2013-04-25 09:11:00,38.0,34.0,30.19,South,172,0.0,1.0,87,0.00,,,0.02,,2013-04-25 13:11:00,
2013-04-25 09:21:00,39.0,35.0,30.19,South,172,0.0,1.0,86,0.00,,,0.02,,2013-04-25 13:21:00,
2013-04-25 09:32:00,41.0,36.0,30.19,South,172,0.0,3.0,83,0.00,,,0.02,,2013-04-25 13:32:00,
2013-04-25 09:42:00,41.0,36.0,30.19,South,172,0.0,3.0,83,0.00,,,0.02,,2013-04-25 13:42:00,
2013-04-25 09:52:00,42.0,37.0,30.19,South,172,1.0,3.0,81,0.00,,,0.02,,2013-04-25 13:52:00,
2013-04-25 10:02:00,46.0,37.0,30.19,South,172,0.0,3.0,70,0.00,,,0.02,,2013-04-25 14:02:00,
2013-04-25 10:11:00,46.0,37.0,30.19,South,172,0.0,3.0,70,0.00,,,0.02,,2013-04-25 14:11:00,
2013-04-25 10:21:00,48.0,38.0,30.19,WSW,241,0.0,4.0,69,0.00,,,0.02,,2013-04-25 14:21:00,
2013-04-25 10:32:00,50.0,38.0,30.19,WSW,243,2.0,6.0,63,0.00,,,0.02,,2013-04-25 14:32:00,
2013-04-25 10:42:00,50.0,38.0,30.19,WSW,243,2.0,6.0,63,0.00,,,0.02,,2013-04-25 14:42:00,
2013-04-25 10:51:00,50.0,37.0,30.20,WSW,251,1.0,3.0,61,0.00,,,0.02,,2013-04-25 14:51:00,
2013-04-25 11:02:00,52.0,39.0,30.20,South,187,0.0,6.0,60,0.00,,,0.02,,2013-04-25 15:02:00,
2013-04-25 11:11:00,52.0,39.0,30.20,South,187,0.0,6.0,60,0.00,,,0.02,,2013-04-25 15:11:00,
2013-04-25 11:21:00,53.0,39.0,30.21,SW,215,2.0,6.0,59,0.00,,,0.02,,2013-04-25 15:21:00,
2013-04-25 11:33:00,54.0,38.0,30.21,WSW,244,1.0,4.0,55,0.00,,,0.02,,2013-04-25 15:33:00,
2013-04-25 11:42:00,54.0,38.0,30.21,WSW,244,1.0,4.0,55,0.00,,,0.02,,2013-04-25 15:42:00,
2013-04-25 11:53:00,55.0,39.0,30.22,SSW,207,0.0,5.0,55,0.00,,,0.02,,2013-04-25 15:53:00,
2013-04-25 12:02:00,56.0,39.0,30.22,SW,233,1.0,3.0,53,0.00,,,0.02,,2013-04-25 16:02:00,
2013-04-25 12:13:00,56.0,39.0,30.22,SW,233,1.0,3.0,53,0.00,,,0.02,,2013-04-25 16:13:00,
2013-04-25 12:24:00,57.0,37.0,30.22,WSW,246,3.0,6.0,47,0.00,,,0.02,,2013-04-25 16:24:00,
2013-04-25 12:33:00,58.0,37.0,30.21,West,278,2.0,4.0,46,0.00,,,0.02,,2013-04-25 16:33:00,
2013-04-25 12:43:00,58.0,37.0,30.21,West,278,2.0,4.0,46,0.00,,,0.02,,2013-04-25 16:43:00,
2013-04-25 12:52:00,59.0,37.0,30.22,WSW,256,4.0,6.0,44,0.00,,,0.02,,2013-04-25 16:52:00,
2013-04-25 13:02:00,60.0,36.0,30.21,SW,223,4.0,7.0,41,0.00,,,0.02,,2013-04-25 17:02:00,
2013-04-25 13:11:00,60.0,36.0,30.21,SW,223,4.0,7.0,41,0.00,,,0.02,,2013-04-25 17:11:00,
2013-04-25 13:22:00,61.0,37.0,30.21,SW,227,3.0,8.0,41,0.00,,,0.02,,2013-04-25 17:22:00,
2013-04-25 13:32:00,63.0,38.0,30.21,WSW,241,4.0,7.0,40,0.00,,,0.02,,2013-04-25 17:32:00,
2013-04-25 13:42:00,63.0,38.0,30.21,WSW,241,4.0,7.0,40,0.00,,,0.02,,2013-04-25 17:42:00,
2013-04-25 13:53:00,63.0,37.0,30.21,SW,218,4.0,9.0,38,0.00,,,0.02,,2013-04-25 17:53:00,
2013-04-25 14:02:00,64.0,34.0,30.21,SSW,207,2.0,8.0,33,0.00,,,0.02,,2013-04-25 18:02:00,
2013-04-25 14:11:00,64.0,34.0,30.21,SSW,207,2.0,8.0,33,0.00,,,0.02,,2013-04-25 18:11:00,
2013-04-25 14:22:00,65.0,33.0,30.21,WSW,240,2.0,11.0,30,0.00,,,0.02,,2013-04-25 18:22:00,
2013-04-25 14:32:00,65.0,22.0,30.21,WNW,303,2.0,9.0,19,0.00,,,0.02,,2013-04-25 18:32:00,
2013-04-25 14:42:00,65.0,22.0,30.21,WNW,303,2.0,9.0,19,0.00,,,0.02,,2013-04-25 18:42:00,
2013-04-25 14:52:00,65.0,23.0,30.21,WNW,299,6.0,9.0,20,0.00,,,0.02,,2013-04-25 18:52:00,
2013-04-25 15:02:00,65.0,19.0,30.21,WNW,285,4.0,8.0,17,0.00,,,0.02,,2013-04-25 19:02:00,
2013-04-25 15:12:00,65.0,19.0,30.21,WNW,285,4.0,8.0,17,0.00,,,0.02,,2013-04-25 19:12:00,
2013-04-25 15:21:00,64.0,21.0,30.21,SW,234,1.0,10.0,19,0.00,,,0.02,,2013-04-25 19:21:00,
2013-04-25 15:32:00,64.0,17.0,30.21,NNE,26,3.0,10.0,16,0.00,,,0.02,,2013-04-25 19:32:00,
2013-04-25 15:42:00,64.0,17.0,30.21,NNE,26,3.0,10.0,16,0.00,,,0.02,,2013-04-25 19:42:00,
2013-04-25 15:52:00,64.0,18.0,30.21,NW,322,5.0,10.0,17,0.00,,,0.02,,2013-04-25 19:52:00,
2013-04-25 16:02:00,64.0,17.0,30.20,North,4,3.0,10.0,16,0.00,,,0.02,,2013-04-25 20:02:00,
2013-04-25 16:11:00,64.0,17.0,30.20,North,4,3.0,10.0,16,0.00,,,0.02,,2013-04-25 20:11:00,
2013-04-25 16:22:00,64.0,15.0,30.20,WNW,302,6.0,16.0,15,0.00,,,0.02,,2013-04-25 20:22:00,
2013-04-25 16:32:00,65.0,16.0,30.19,NNW,337,2.0,8.0,15,0.00,,,0.02,,2013-04-25 20:32:00,
2013-04-25 16:42:00,65.0,16.0,30.19,NNW,337,2.0,8.0,15,0.00,,,0.02,,2013-04-25 20:42:00,
2013-04-25 16:52:00,65.0,13.0,30.19,NNW,347,7.0,12.0,13,0.00,,,0.02,,2013-04-25 20:52:00,
2013-04-25 17:01:00,65.0,16.0,30.19,ENE,57,6.0,11.0,15,0.00,,,0.02,,2013-04-25 21:01:00,
2013-04-25 17:11:00,65.0,16.0,30.19,ENE,57,6.0,11.0,15,0.00,,,0.02,,2013-04-25 21:11:00,
2013-04-25 17:22:00,64.0,12.0,30.19,ESE,119,4.0,15.0,13,0.00,,,0.02,,2013-04-25 21:22:00,
2013-04-25 17:33:00,64.0,12.0,30.19,South,174,3.0,16.0,13,0.00,,,0.02,,2013-04-25 21:33:00,
2013-04-25 17:42:00,64.0,12.0,30.19,South,174,3.0,16.0,13,0.00,,,0.02,,2013-04-25 21:42:00,
2013-04-25 17:52:00,64.0,12.0,30.19,North,8,4.0,11.0,13,0.00,,,0.02,,2013-04-25 21:52:00,
2013-04-25 18:03:00,63.0,8.0,30.19,East,79,2.0,14.0,11,0.00,,,0.00,,2013-04-25 22:03:00,
2013-04-25 18:12:00,63.0,8.0,30.19,East,79,2.0,14.0,11,0.00,,,0.00,,2013-04-25 22:12:00,
2013-04-25 18:22:00,63.0,10.0,30.20,NNE,30,1.0,10.0,12,0.00,,,0.00,,2013-04-25 22:22:00,
2013-04-25 18:33:00,63.0,15.0,30.20,NW,309,1.0,9.0,15,0.00,,,0.00,,2013-04-25 22:33:00,
2013-04-25 18:42:00,63.0,15.0,30.20,NW,309,1.0,9.0,15,0.00,,,0.00,,2013-04-25 22:42:00,
2013-04-25 18:52:00,63.0,8.0,30.21,ESE,107,4.0,13.0,11,0.00,,,0.00,,2013-04-25 22:52:00,
2013-04-25 19:02:00,62.0,11.0,30.21,South,178,2.0,9.0,13,0.00,,,0.00,,2013-04-25 23:02:00,
2013-04-25 19:12:00,62.0,11.0,30.21,South,178,2.0,9.0,13,0.00,,,0.00,,2013-04-25 23:12:00,
2013-04-25 19:22:00,62.0,9.0,30.22,NE,45,5.0,10.0,12,0.00,,,0.00,,2013-04-25 23:22:00,
2013-04-25 19:32:00,60.0,9.0,30.22,NNW,348,1.0,6.0,13,0.00,,,0.00,,2013-04-25 23:32:00,
2013-04-25 19:42:00,60.0,9.0,30.22,NNW,348,1.0,6.0,13,0.00,,,0.00,,2013-04-25 23:42:00,
2013-04-25 19:52:00,59.0,10.0,30.22,NNW,344,1.0,5.0,14,0.00,,,0.00,,2013-04-25 23:52:00,
2013-04-25 20:01:00,58.0,13.0,30.23,WSW,240,0.0,6.0,17,0.00,,,0.00,,2013-04-26 00:01:00,
2013-04-25 20:11:00,58.0,13.0,30.23,WSW,240,0.0,6.0,17,0.00,,,0.00,,2013-04-26 00:11:00,
2013-04-25 20:21:00,57.0,17.0,30.23,SE,129,0.0,4.0,21,0.00,,,0.00,,2013-04-26 00:21:00,
2013-04-25 20:32:00,55.0,16.0,30.24,NNE,16,2.0,6.0,21,0.00,,,0.00,,2013-04-26 00:32:00,
2013-04-25 20:42:00,55.0,16.0,30.24,NNE,16,2.0,6.0,21,0.00,,,0.00,,2013-04-26 00:42:00,
2013-04-25 20:51:00,55.0,16.0,30.24,NW,322,1.0,8.0,21,0.00,,,0.00,,2013-04-26 00:51:00,
2013-04-25 21:01:00,54.0,15.0,30.25,NNE,31,4.0,8.0,21,0.00,,,0.00,,2013-04-26 01:01:00,
2013-04-25 21:11:00,54.0,15.0,30.25,NNE,31,4.0,8.0,21,0.00,,,0.00,,2013-04-26 01:11:00,
2013-04-25 21:21:00,54.0,15.0,30.24,NW,314,0.0,5.0,21,0.00,,,0.00,,2013-04-26 01:21:00,
2013-04-25 21:32:00,54.0,17.0,30.25,North,2,5.0,9.0,23,0.00,,,0.00,,2013-04-26 01:32:00,
2013-04-25 21:42:00,54.0,17.0,30.25,North,2,5.0,9.0,23,0.00,,,0.00,,2013-04-26 01:42:00,
2013-04-25 21:52:00,54.0,18.0,30.25,NW,322,3.0,8.0,24,0.00,,,0.00,,2013-04-26 01:52:00,
2013-04-25 22:02:00,54.0,21.0,30.26,ENE,63,2.0,12.0,27,0.00,,,0.00,,2013-04-26 02:02:00,
2013-04-25 22:12:00,54.0,21.0,30.26,ENE,63,2.0,12.0,27,0.00,,,0.00,,2013-04-26 02:12:00,
2013-04-25 22:21:00,54.0,21.0,30.27,North,2,6.0,12.0,27,0.00,,,0.00,,2013-04-26 02:21:00,
2013-04-25 22:32:00,53.0,19.0,30.28,ENE,59,2.0,9.0,26,0.00,,,0.00,,2013-04-26 02:32:00,
2013-04-25 22:42:00,53.0,19.0,30.28,ENE,59,2.0,9.0,26,0.00,,,0.00,,2013-04-26 02:42:00,
2013-04-25 22:51:00,53.0,19.0,30.28,North,0,0.0,9.0,26,0.00,,,0.00,,2013-04-26 02:51:00,
2013-04-25 23:01:00,53.0,18.0,30.28,East,97,1.0,6.0,25,0.00,,,0.00,,2013-04-26 03:01:00,
2013-04-25 23:11:00,53.0,18.0,30.28,East,97,1.0,6.0,25,0.00,,,0.00,,2013-04-26 03:11:00,
2013-04-25 23:22:00,52.0,18.0,30.28,NE,35,2.0,6.0,26,0.00,,,0.00,,2013-04-26 03:22:00,
2013-04-25 23:33:00,52.0,19.0,30.28,NW,320,3.0,9.0,27,0.00,,,0.00,,2013-04-26 03:33:00,
2013-04-25 23:43:00,52.0,19.0,30.28,NW,320,3.0,9.0,27,0.00,,,0.00,,2013-04-26 03:43:00,
2013-04-25 23:53:00,52.0,19.0,30.28,WNW,288,4.0,11.0,27,0.00,,,0.00,,2013-04-26 03:53:00,